Time;durP1;ratioP1;P1;durP2;ratioP2;P2;SDS_P1;SDS_P2;PMS_P1;PMS_P2;Temp;Humidity;BMP_temperature;BMP_pressure;BME280_temperature;BME280_humidity;BME280_pressure;Samples;Min_cycle;Max_cycle;Signal;HPM_P1;HPM_P2
2023/05/28 00:00:50;;;;;;;;;;;;;;;21.98;60.40;98652.88;2083699;28;19921;-50
2023/05/28 00:01:52;;;;;;;;;;;;;;;21.97;60.64;98656.63;2086907;28;20006;-46
2023/05/28 00:02:52;;;;;;;;;;;;;;;21.97;60.47;98652.03;2085414;28;19925;-51
2023/05/28 00:03:53;;;;;;;;;;;;;;;21.97;60.58;98645.81;2085096;28;21408;-50
2023/05/28 00:04:54;;;;;;;;;;;;;;;21.96;60.58;98650.41;2084123;28;20678;-53
2023/05/28 00:05:55;;;;;;;;;;;;;;;21.95;60.57;98643.34;2085722;28;19933;-50
2023/05/28 00:06:56;;;;;;;;;;;;;;;21.95;60.57;98643.34;2082319;28;20734;-49
2023/05/28 00:08:00;;;;;;;;;;;;;;;21.95;60.48;98643.34;2083152;28;19933;-49
2023/05/28 00:09:00;;;;;;;;;;;;;;;21.95;60.58;98639.81;2081964;28;20342;-48
2023/05/28 00:10:02;;;;;;;;;;;;;;;21.94;60.47;98636.28;2081930;28;19927;-48
2023/05/28 00:11:04;;;;;;;;;;;;;;;21.94;60.68;98630.91;2083170;28;19985;-49
2023/05/28 00:12:07;;;;;;;;;;;;;;;21.95;60.43;98632.53;2079168;28;20352;-50
2023/05/28 00:13:07;;;;;;;;;;;;;;;21.95;60.44;98637.13;2074102;28;19928;-51
2023/05/28 00:14:09;;;;;;;;;;;;;;;21.93;60.70;98633.84;2079985;28;19927;-50
2023/05/28 00:15:10;;;;;;;;;;;;;;;21.94;60.66;98632.78;2083124;28;20788;-52
2023/05/28 00:16:14;;;;;;;;;;;;;;;21.93;60.83;98633.84;2085795;28;20483;-51
2023/05/28 00:17:16;;;;;;;;;;;;;;;21.94;60.70;98635.47;2085590;28;20099;-49
2023/05/28 00:18:18;;;;;;;;;;;;;;;21.95;60.62;98637.13;2086391;28;20016;-50
2023/05/28 00:19:19;;;;;;;;;;;;;;;21.94;60.73;98633.59;2082660;28;19929;-50
2023/05/28 00:20:20;;;;;;;;;;;;;;;21.93;60.52;98625.75;2073116;28;20418;-50
2023/05/28 00:21:21;;;;;;;;;;;;;;;21.93;60.80;98634.66;2077077;28;19925;-51
2023/05/28 00:22:22;;;;;;;;;;;;;;;21.96;60.68;98626.09;2085093;28;20280;-51
2023/05/28 00:23:23;;;;;;;;;;;;;;;21.94;60.57;98622.78;2081660;28;19959;-53
2023/05/28 00:24:25;;;;;;;;;;;;;;;21.95;60.71;98623.63;2085063;28;19931;-46
2023/05/28 00:25:25;;;;;;;;;;;;;;;21.94;60.38;98630.91;2085507;28;19921;-52
2023/05/28 00:26:28;;;;;;;;;;;;;;;21.95;60.41;98623.63;2087158;28;19964;-51
2023/05/28 00:27:28;;;;;;;;;;;;;;;21.94;60.71;98619.28;2083003;28;19944;-51
2023/05/28 00:28:30;;;;;;;;;;;;;;;21.94;60.72;98620.09;2087734;28;20331;-49
2023/05/28 00:29:30;;;;;;;;;;;;;;;21.94;60.43;98613.88;2081781;28;20387;-51
2023/05/28 00:30:32;;;;;;;;;;;;;;;21.93;60.66;98618.47;2085751;28;19928;-48
2023/05/28 00:31:32;;;;;;;;;;;;;;;21.93;60.59;98617.63;2086637;28;19924;-49
2023/05/28 00:32:34;;;;;;;;;;;;;;;21.94;60.48;98611.16;2086388;28;20860;-48
2023/05/28 00:33:35;;;;;;;;;;;;;;;21.93;60.68;98613.06;2087316;28;20227;-51
2023/05/28 00:34:36;;;;;;;;;;;;;;;21.93;60.65;98618.47;2084799;28;20776;-50
2023/05/28 00:35:37;;;;;;;;;;;;;;;21.93;60.50;98618.47;2078905;28;19928;-51
2023/05/28 00:36:38;;;;;;;;;;;;;;;21.91;60.77;98607.03;2083431;28;19932;-53
2023/05/28 00:37:39;;;;;;;;;;;;;;;21.92;60.58;98605.97;2080937;28;20013;-48
2023/05/28 00:38:40;;;;;;;;;;;;;;;21.94;60.71;98619.28;2086460;28;20509;-49
2023/05/28 00:39:41;;;;;;;;;;;;;;;21.93;60.63;98613.06;2088133;28;19937;-49
2023/05/28 00:40:43;;;;;;;;;;;;;;;21.92;60.73;98605.97;2084590;28;20547;-48
2023/05/28 00:41:45;;;;;;;;;;;;;;;21.93;60.58;98613.06;2086259;28;19924;-45
2023/05/28 00:42:46;;;;;;;;;;;;;;;21.93;60.38;98610.34;2085349;28;19928;-49
2023/05/28 00:43:47;;;;;;;;;;;;;;;21.91;60.83;98609.75;2083363;28;19932;-49
2023/05/28 00:44:48;;;;;;;;;;;;;;;21.91;60.65;98609.75;2086980;28;19924;-53
2023/05/28 00:45:49;;;;;;;;;;;;;;;21.93;60.75;98612.22;2083642;28;19924;-53
2023/05/28 00:46:51;;;;;;;;;;;;;;;21.93;60.66;98609.53;2088130;28;19936;-51
2023/05/28 00:47:52;;;;;;;;;;;;;;;21.92;60.76;98605.97;2085801;28;19920;-49
2023/05/28 00:48:54;;;;;;;;;;;;;;;21.90;60.74;98608.09;2085413;28;20001;-53
2023/05/28 00:49:55;;;;;;;;;;;;;;;21.91;60.67;98604.34;2080182;28;20428;-53
2023/05/28 00:50:57;;;;;;;;;;;;;;;21.91;60.67;98615.16;2083493;28;19928;-46
2023/05/28 00:51:57;;;;;;;;;;;;;;;21.92;60.63;98610.56;2076058;28;19925;-49
2023/05/28 00:52:59;;;;;;;;;;;;;;;21.90;60.84;98612.66;2084200;28;20269;-48
2023/05/28 00:54:00;;;;;;;;;;;;;;;21.90;60.52;98615.34;2083325;28;19928;-50
2023/05/28 00:55:01;;;;;;;;;;;;;;;21.89;60.48;98606.44;2083893;28;19928;-53
2023/05/28 00:56:02;;;;;;;;;;;;;;;21.90;60.88;98612.66;2079659;28;20406;-50
2023/05/28 00:57:06;;;;;;;;;;;;;;;21.90;60.67;98601.84;2085360;28;19924;-52
2023/05/28 00:58:07;;;;;;;;;;;;;;;21.90;60.69;98604.56;2085688;28;19993;-50
2023/05/28 00:59:08;;;;;;;;;;;;;;;21.89;60.67;98601.03;2085100;28;19920;-49
2023/05/28 01:00:10;;;;;;;;;;;;;;;21.87;60.59;98600.47;2086151;28;20532;-50
2023/05/28 01:01:11;;;;;;;;;;;;;;;21.89;60.68;98603.72;2085600;28;19925;-49
2023/05/28 01:02:12;;;;;;;;;;;;;;;21.90;60.68;98604.56;2086861;28;20004;-50
2023/05/28 01:03:13;;;;;;;;;;;;;;;21.89;60.69;98601.03;2086922;28;20001;-49
2023/05/28 01:04:14;;;;;;;;;;;;;;;21.89;60.70;98613.72;2089075;28;19924;-50
2023/05/28 01:05:17;;;;;;;;;;;;;;;21.89;60.84;98614.53;2078996;28;19936;-50
2023/05/28 01:06:17;;;;;;;;;;;;;;;21.89;60.79;98605.63;2081526;28;19974;-52
2023/05/28 01:07:19;;;;;;;;;;;;;;;21.89;60.63;98611.84;2087395;28;19979;-50
2023/05/28 01:08:20;;;;;;;;;;;;;;;21.90;60.61;98613.50;2083855;28;19925;-49
2023/05/28 01:09:21;;;;;;;;;;;;;;;21.89;60.80;98601.03;2085954;28;19932;-51
2023/05/28 01:10:21;;;;;;;;;;;;;;;21.91;60.60;98614.31;2085424;28;19924;-51
2023/05/28 01:11:24;;;;;;;;;;;;;;;21.89;60.68;98605.63;2085780;28;19921;-49
2023/05/28 01:12:26;;;;;;;;;;;;;;;21.89;60.62;98614.53;2085897;28;19927;-50
2023/05/28 01:13:27;;;;;;;;;;;;;;;21.88;60.79;98612.91;2086631;28;19927;-47
2023/05/28 01:14:29;;;;;;;;;;;;;;;21.88;60.74;98603.97;2088120;28;20517;-47
2023/05/28 01:15:31;;;;;;;;;;;;;;;21.89;60.87;98603.72;2084665;28;20005;-49
2023/05/28 01:16:32;;;;;;;;;;;;;;;21.87;60.83;98603.16;2084390;28;19931;-49
2023/05/28 01:17:33;;;;;;;;;;;;;;;21.86;60.94;98602.31;2085663;28;19945;-50
2023/05/28 01:18:34;;;;;;;;;;;;;;;21.87;60.71;98597.75;2085136;28;20358;-49
2023/05/28 01:19:36;;;;;;;;;;;;;;;21.87;60.56;98595.06;2085314;28;19982;-50
2023/05/28 01:20:36;;;;;;;;;;;;;;;21.88;60.64;98610.19;2083101;28;20430;-52
2023/05/28 01:21:41;;;;;;;;;;;;;;;21.88;60.87;98603.97;2079484;28;19983;-52
2023/05/28 01:22:45;;;;;;;;;;;;;;;21.88;60.57;98603.97;2086530;28;20056;-49
2023/05/28 01:23:48;;;;;;;;;;;;;;;21.88;60.71;98610.19;2086339;28;19928;-50
2023/05/28 01:24:51;;;;;;;;;;;;;;;21.88;60.65;98604.81;2084184;28;19940;-49
2023/05/28 01:25:53;;;;;;;;;;;;;;;21.89;60.88;98617.25;2084476;28;20479;-50
2023/05/28 01:26:54;;;;;;;;;;;;;;;21.88;60.54;98609.38;2085044;28;20005;-48
2023/05/28 01:27:55;;;;;;;;;;;;;;;21.88;60.79;98604.81;2087250;28;19989;-51
2023/05/28 01:28:56;;;;;;;;;;;;;;;21.86;60.74;98615.00;2086378;28;20519;-51
2023/05/28 01:29:57;;;;;;;;;;;;;;;21.86;60.94;98610.41;2085169;28;19978;-52
2023/05/28 01:30:58;;;;;;;;;;;;;;;21.86;60.90;98606.91;2084468;28;20405;-54
2023/05/28 01:31:59;;;;;;;;;;;;;;;21.86;60.79;98606.91;2084306;28;19921;-54
2023/05/28 01:33:00;;;;;;;;;;;;;;;21.86;60.85;98606.91;2083242;28;19964;-48
2023/05/28 01:34:02;;;;;;;;;;;;;;;21.86;60.88;98610.41;2083487;28;19921;-51
2023/05/28 01:35:02;;;;;;;;;;;;;;;21.86;60.70;98618.50;2082265;28;19949;-48
2023/05/28 01:36:07;;;;;;;;;;;;;;;21.87;60.81;98613.97;2081559;28;19973;-49
2023/05/28 01:37:09;;;;;;;;;;;;;;;21.86;60.61;98613.09;2083907;28;19924;-48
2023/05/28 01:38:11;;;;;;;;;;;;;;;21.86;60.71;98618.50;2085516;28;19920;-50
2023/05/28 01:39:15;;;;;;;;;;;;;;;21.88;60.61;98609.38;2083815;28;20526;-50
2023/05/28 01:40:18;;;;;;;;;;;;;;;21.86;60.73;98615.81;2085638;28;19920;-48
2023/05/28 01:41:19;;;;;;;;;;;;;;;21.86;60.85;98609.59;2083991;28;20068;-48
2023/05/28 01:42:21;;;;;;;;;;;;;;;21.87;60.76;98611.25;2085528;28;19928;-52
2023/05/28 01:43:21;;;;;;;;;;;;;;;21.87;60.92;98616.66;2080344;28;19955;-51
2023/05/28 01:44:23;;;;;;;;;;;;;;;21.84;60.58;98615.22;2083040;28;19967;-49
2023/05/28 01:45:24;;;;;;;;;;;;;;;21.88;60.70;98618.31;2083839;28;19977;-45
2023/05/28 01:46:26;;;;;;;;;;;;;;;21.86;60.90;98613.09;2085824;28;19921;-48
2023/05/28 01:47:28;;;;;;;;;;;;;;;21.86;60.70;98617.69;2086817;28;19973;-50
2023/05/28 01:48:30;;;;;;;;;;;;;;;21.86;60.70;98615.81;2085912;28;20655;-50
2023/05/28 01:49:30;;;;;;;;;;;;;;;21.85;60.68;98613.34;2081730;28;19925;-53
2023/05/28 01:50:32;;;;;;;;;;;;;;;21.83;60.78;98618.97;2084604;28;20310;-53
2023/05/28 01:51:33;;;;;;;;;;;;;;;21.84;60.84;98612.53;2085283;28;20077;-46
2023/05/28 01:52:34;;;;;;;;;;;;;;;21.83;61.00;98615.44;2082615;28;20015;-52
2023/05/28 01:53:35;;;;;;;;;;;;;;;21.86;60.63;98612.28;2085572;28;19928;-47
2023/05/28 01:54:38;;;;;;;;;;;;;;;21.85;60.82;98605.25;2082684;28;20597;-46
2023/05/28 01:55:38;;;;;;;;;;;;;;;21.86;60.76;98618.50;2081469;28;19947;-52
2023/05/28 01:56:40;;;;;;;;;;;;;;;21.87;60.91;98605.84;2082800;28;19925;-48
2023/05/28 01:57:40;;;;;;;;;;;;;;;21.85;60.88;98610.66;2082818;28;19928;-51
2023/05/28 01:58:42;;;;;;;;;;;;;;;21.86;61.03;98612.28;2083736;28;19983;-48
2023/05/28 01:59:42;;;;;;;;;;;;;;;21.85;60.65;98605.25;2083524;28;20034;-51
2023/05/28 02:00:48;;;;;;;;;;;;;;;21.86;60.93;98606.91;2084049;28;19924;-47
2023/05/28 02:01:48;;;;;;;;;;;;;;;21.87;60.55;98611.25;2084446;28;19966;-51
2023/05/28 02:02:49;;;;;;;;;;;;;;;21.87;60.82;98603.16;2084477;28;20422;-49
2023/05/28 02:03:50;;;;;;;;;;;;;;;21.86;60.54;98606.91;2088623;28;19980;-45
2023/05/28 02:04:51;;;;;;;;;;;;;;;21.85;60.76;98607.94;2084140;28;19924;-46
2023/05/28 02:05:52;;;;;;;;;;;;;;;21.82;60.68;98595.72;2079084;28;20007;-47
2023/05/28 02:06:53;;;;;;;;;;;;;;;21.84;60.96;98604.44;2089758;28;19924;-47
2023/05/28 02:07:54;;;;;;;;;;;;;;;21.84;60.88;98596.34;2084318;28;20319;-49
2023/05/28 02:08:55;;;;;;;;;;;;;;;21.85;60.78;98600.66;2085250;28;19982;-50
2023/05/28 02:09:57;;;;;;;;;;;;;;;21.85;60.68;98606.06;2087480;28;19924;-46
2023/05/28 02:10:58;;;;;;;;;;;;;;;21.85;60.90;98594.44;2089362;28;20400;-49
2023/05/28 02:12:02;;;;;;;;;;;;;;;21.84;60.89;98603.59;2090453;28;19928;-48
2023/05/28 02:13:04;;;;;;;;;;;;;;;21.84;60.85;98595.47;2089536;28;19947;-48
2023/05/28 02:14:04;;;;;;;;;;;;;;;21.84;60.75;98595.47;2091797;28;20085;-46
2023/05/28 02:15:07;;;;;;;;;;;;;;;21.85;60.69;98597.16;2086938;28;20058;-46
2023/05/28 02:16:07;;;;;;;;;;;;;;;21.84;60.85;98588.22;2090377;28;19924;-48
2023/05/28 02:17:09;;;;;;;;;;;;;;;21.84;60.92;98587.38;2090957;28;19928;-47
2023/05/28 02:18:10;;;;;;;;;;;;;;;21.83;60.83;98591.16;2087236;28;20422;-47
2023/05/28 02:19:12;;;;;;;;;;;;;;;21.84;60.80;98593.63;2089224;28;20003;-48
2023/05/28 02:20:12;;;;;;;;;;;;;;;21.84;60.72;98587.38;2085739;28;19925;-47
2023/05/28 02:21:14;;;;;;;;;;;;;;;21.84;60.74;98588.22;2086005;28;20027;-49
2023/05/28 02:22:14;;;;;;;;;;;;;;;21.83;60.79;98585.75;2085545;28;19928;-47
2023/05/28 02:23:16;;;;;;;;;;;;;;;21.82;60.96;98584.09;2082402;28;19932;-46
2023/05/28 02:24:16;;;;;;;;;;;;;;;21.82;60.94;98581.41;2086817;28;19928;-47
2023/05/28 02:25:20;;;;;;;;;;;;;;;21.82;60.71;98586.81;2086495;28;19925;-47
2023/05/28 02:26:22;;;;;;;;;;;;;;;21.81;60.68;98583.28;2089744;28;21327;-46
2023/05/28 02:27:23;;;;;;;;;;;;;;;21.83;60.75;98585.75;2082844;28;19927;-49
2023/05/28 02:28:24;;;;;;;;;;;;;;;21.84;60.78;98585.53;2084739;28;19950;-50
2023/05/28 02:29:25;;;;;;;;;;;;;;;21.85;60.71;98580.94;2086132;28;19924;-49
2023/05/28 02:30:26;;;;;;;;;;;;;;;21.82;60.76;98579.53;2089848;28;19998;-47
2023/05/28 02:31:27;;;;;;;;;;;;;;;21.83;60.79;98580.34;2089133;28;20397;-46
2023/05/28 02:32:28;;;;;;;;;;;;;;;21.83;60.65;98585.75;2087526;28;20005;-47
2023/05/28 02:33:28;;;;;;;;;;;;;;;21.82;60.77;98589.50;2085235;28;20052;-48
2023/05/28 02:34:31;;;;;;;;;;;;;;;21.81;60.77;98583.28;2087214;28;19939;-48
2023/05/28 02:35:31;;;;;;;;;;;;;;;21.81;60.91;98590.53;2082505;28;20101;-48
2023/05/28 02:36:32;;;;;;;;;;;;;;;21.83;60.86;98588.44;2083142;28;19932;-46
2023/05/28 02:37:33;;;;;;;;;;;;;;;21.81;60.89;98585.13;2086016;28;19978;-46
2023/05/28 02:38:34;;;;;;;;;;;;;;;21.82;60.79;98584.09;2088593;28;19925;-54
2023/05/28 02:39:35;;;;;;;;;;;;;;;21.82;60.94;98592.22;2087112;28;19982;-45
2023/05/28 02:40:38;;;;;;;;;;;;;;;21.82;60.84;98584.09;2088597;28;20005;-47
2023/05/28 02:41:38;;;;;;;;;;;;;;;21.81;60.62;98586.00;2088971;28;20379;-50
2023/05/28 02:42:40;;;;;;;;;;;;;;;21.82;60.62;98584.09;2088882;28;19928;-47
2023/05/28 02:43:40;;;;;;;;;;;;;;;21.80;61.03;98591.59;2085465;28;19928;-46
2023/05/28 02:44:42;;;;;;;;;;;;;;;21.79;60.90;98588.09;2086677;28;21297;-49
2023/05/28 02:45:42;;;;;;;;;;;;;;;21.80;60.68;98586.19;2086278;28;20337;-46
2023/05/28 02:46:43;;;;;;;;;;;;;;;21.81;60.87;98585.13;2089997;28;19928;-47
2023/05/28 02:47:44;;;;;;;;;;;;;;;21.82;60.76;98581.41;2086362;28;20402;-46
2023/05/28 02:48:45;;;;;;;;;;;;;;;21.82;60.59;98589.50;2088383;28;19985;-48
2023/05/28 02:49:46;;;;;;;;;;;;;;;21.82;60.80;98584.94;2087653;28;19929;-49
2023/05/28 02:50:47;;;;;;;;;;;;;;;21.82;60.58;98584.94;2082033;28;19928;-49
2023/05/28 02:51:48;;;;;;;;;;;;;;;21.81;60.77;98582.44;2082749;28;19978;-46
2023/05/28 02:52:49;;;;;;;;;;;;;;;21.80;60.79;98580.81;2086101;28;19974;-49
2023/05/28 02:53:50;;;;;;;;;;;;;;;21.80;60.64;98580.81;2085395;28;19932;-45
2023/05/28 02:54:51;;;;;;;;;;;;;;;21.81;60.71;98583.28;2086776;28;19924;-47
2023/05/28 02:55:53;;;;;;;;;;;;;;;21.81;60.59;98582.44;2086726;28;19982;-49
2023/05/28 02:56:55;;;;;;;;;;;;;;;21.79;60.81;98573.75;2086885;28;20063;-49
2023/05/28 02:57:55;;;;;;;;;;;;;;;21.79;60.77;98581.88;2084876;28;20647;-50
2023/05/28 02:58:57;;;;;;;;;;;;;;;21.79;60.63;98581.88;2088034;28;19920;-48
2023/05/28 02:59:57;;;;;;;;;;;;;;;21.79;60.75;98579.16;2087935;28;19921;-46
2023/05/28 03:00:59;;;;;;;;;;;;;;;21.81;60.72;98582.44;2083262;28;19967;-49
2023/05/28 03:02:00;;;;;;;;;;;;;;;21.79;60.68;98584.56;2089162;28;20466;-47
2023/05/28 03:03:01;;;;;;;;;;;;;;;21.80;60.75;98591.59;2091477;28;19928;-48
2023/05/28 03:04:02;;;;;;;;;;;;;;;21.79;60.72;98588.09;2088807;28;19924;-47
2023/05/28 03:05:03;;;;;;;;;;;;;;;21.79;60.58;98585.38;2088635;28;20001;-48
2023/05/28 03:06:04;;;;;;;;;;;;;;;21.78;60.87;98588.28;2084075;28;19928;-51
2023/05/28 03:07:05;;;;;;;;;;;;;;;21.78;60.91;98596.38;2085510;28;19928;-46
2023/05/28 03:08:06;;;;;;;;;;;;;;;21.77;60.91;98592.88;2086832;28;19959;-45
2023/05/28 03:09:07;;;;;;;;;;;;;;;21.78;60.84;98588.28;2091231;28;19931;-47
2023/05/28 03:10:08;;;;;;;;;;;;;;;21.78;60.65;98588.28;2087897;28;19999;-47
2023/05/28 03:11:11;;;;;;;;;;;;;;;21.77;60.75;98586.66;2088269;28;19924;-47
2023/05/28 03:12:12;;;;;;;;;;;;;;;21.77;60.88;98594.75;2089327;28;19920;-47
2023/05/28 03:13:13;;;;;;;;;;;;;;;21.76;60.88;98585.00;2089907;28;19998;-46
2023/05/28 03:14:13;;;;;;;;;;;;;;;21.75;60.70;98589.56;2087061;28;20362;-47
2023/05/28 03:15:15;;;;;;;;;;;;;;;21.76;60.67;98579.63;2087882;28;19928;-46
2023/05/28 03:16:16;;;;;;;;;;;;;;;21.76;60.66;98580.44;2084862;28;19977;-48
2023/05/28 03:17:17;;;;;;;;;;;;;;;21.75;60.66;98570.66;2086936;28;19982;-46
2023/05/28 03:18:18;;;;;;;;;;;;;;;21.75;60.71;98577.94;2088896;28;19924;-48
2023/05/28 03:19:20;;;;;;;;;;;;;;;21.76;60.75;98576.91;2084829;28;20388;-46
2023/05/28 03:20:20;;;;;;;;;;;;;;;21.74;60.90;98576.31;2080301;28;19974;-49
2023/05/28 03:21:22;;;;;;;;;;;;;;;21.75;60.53;98578.78;2083071;28;19925;-46
2023/05/28 03:22:22;;;;;;;;;;;;;;;21.74;60.72;98576.31;2082426;28;20677;-50
2023/05/28 03:23:24;;;;;;;;;;;;;;;21.74;60.89;98577.13;2085731;28;19974;-47
2023/05/28 03:24:25;;;;;;;;;;;;;;;21.74;60.86;98573.63;2088725;28;19920;-46
2023/05/28 03:25:27;;;;;;;;;;;;;;;21.74;60.75;98573.63;2081377;28;19929;-46
2023/05/28 03:26:28;;;;;;;;;;;;;;;21.74;60.81;98577.13;2087320;28;19920;-49
2023/05/28 03:27:30;;;;;;;;;;;;;;;21.74;60.79;98577.13;2084565;28;19931;-47
2023/05/28 03:28:30;;;;;;;;;;;;;;;21.75;60.76;98575.25;2091219;28;19920;-49
2023/05/28 03:29:31;;;;;;;;;;;;;;;;;;2088098;28;19920;-48
2023/05/28 03:30:32;;;;;;;;;;;;;;;21.74;61.01;98581.72;2088870;28;19950;-50
2023/05/28 03:31:42;;;;;;;;;;;;;;;21.74;60.63;98579.00;2085636;28;19966;-51
2023/05/28 03:32:44;;;;;;;;;;;;;;;21.74;60.69;98576.31;2076373;28;20442;-50
2023/05/28 03:33:44;;;;;;;;;;;;;;;;;;2085539;28;21688;-50
2023/05/28 03:34:46;;;;;;;;;;;;;;;21.75;60.82;98578.78;2084058;28;21588;-50
2023/05/28 03:35:46;;;;;;;;;;;;;;;21.74;60.77;98581.72;2075386;28;19928;-53
2023/05/28 03:36:47;;;;;;;;;;;;;;;;;;2081734;28;20012;-52
2023/05/28 03:37:48;;;;;;;;;;;;;;;21.73;60.75;98577.34;2084951;28;19928;-50
2023/05/28 03:38:50;;;;;;;;;;;;;;;21.71;60.49;98577.59;2083384;28;20011;-50
2023/05/28 03:39:50;;;;;;;;;;;;;;;21.72;60.54;98583.81;2086960;28;19925;-52
2023/05/28 03:40:51;;;;;;;;;;;;;;;21.70;60.86;98581.31;2085709;28;22032;-46
2023/05/28 03:41:53;;;;;;;;;;;;;;;21.71;60.64;98585.69;2087031;28;20504;-52
2023/05/28 03:42:55;;;;;;;;;;;;;;;21.72;60.98;98578.41;2078444;28;19940;-49
2023/05/28 03:43:55;;;;;;;;;;;;;;;21.72;60.84;98578.41;2084986;28;20023;-51
2023/05/28 03:44:56;;;;;;;;;;;;;;;21.71;60.83;98582.97;2084080;28;19928;-54
2023/05/28 03:45:57;;;;;;;;;;;;;;;21.71;60.88;98582.16;2083875;28;20425;-53
2023/05/28 03:46:58;;;;;;;;;;;;;;;21.70;60.64;98585.88;2086423;28;19951;-50
2023/05/28 03:48:00;;;;;;;;;;;;;;;21.71;60.87;98584.84;2086683;28;19955;-49
2023/05/28 03:49:02;;;;;;;;;;;;;;;21.70;60.73;98586.72;2088452;28;19920;-49
2023/05/28 03:50:04;;;;;;;;;;;;;;;21.70;60.98;98592.09;2080973;28;19984;-50
2023/05/28 03:51:05;;;;;;;;;;;;;;;21.68;60.81;98578.03;2080563;28;20318;-49
2023/05/28 03:52:07;;;;;;;;;;;;;;;21.70;60.75;98589.41;2084673;28;19932;-49
2023/05/28 03:53:08;;;;;;;;;;;;;;;21.71;60.90;98592.97;2084988;28;20186;-51
2023/05/28 03:54:09;;;;;;;;;;;;;;;21.69;60.69;98589.66;2088713;28;21126;-47
2023/05/28 03:55:10;;;;;;;;;;;;;;;21.68;60.91;98596.94;2084137;28;19921;-50
2023/05/28 03:56:10;;;;;;;;;;;;;;;21.69;60.87;98595.88;2077796;28;19932;-50
2023/05/28 03:57:13;;;;;;;;;;;;;;;21.70;60.79;98596.69;2085488;28;19923;-51
2023/05/28 03:58:15;;;;;;;;;;;;;;;21.69;60.71;98600.44;2085227;28;20103;-48
2023/05/28 03:59:17;;;;;;;;;;;;;;;21.68;60.91;98599.63;2085776;28;19931;-51
2023/05/28 04:00:17;;;;;;;;;;;;;;;21.69;60.87;98593.16;2087880;28;19973;-50
2023/05/28 04:01:19;;;;;;;;;;;;;;;21.69;60.59;98597.75;2088287;28;20294;-51
2023/05/28 04:02:20;;;;;;;;;;;;;;;21.70;60.76;98599.38;2085312;28;19924;-52
2023/05/28 04:03:21;;;;;;;;;;;;;;;21.69;60.72;98598.56;2088372;28;20400;-51
2023/05/28 04:04:21;;;;;;;;;;;;;;;21.69;60.72;98595.06;2087081;28;19928;-51
2023/05/28 04:05:24;;;;;;;;;;;;;;;21.67;60.81;98587.16;2086938;28;20497;-51
2023/05/28 04:06:24;;;;;;;;;;;;;;;21.67;60.81;98592.56;2081727;28;19920;-52
2023/05/28 04:07:26;;;;;;;;;;;;;;;21.67;60.57;98594.44;2085474;28;20014;-49
2023/05/28 04:08:26;;;;;;;;;;;;;;;21.67;60.65;98597.13;2087038;28;19924;-54
2023/05/28 04:09:28;;;;;;;;;;;;;;;21.64;60.69;98596.53;2079847;28;19928;-54
2023/05/28 04:10:28;;;;;;;;;;;;;;;21.66;60.87;98595.50;2084130;28;20031;-51
2023/05/28 04:11:30;;;;;;;;;;;;;;;21.67;60.99;98591.75;2085527;28;20342;-52
2023/05/28 04:12:32;;;;;;;;;;;;;;;21.67;60.74;98597.13;2086964;28;20055;-51
2023/05/28 04:13:33;;;;;;;;;;;;;;;21.67;60.82;98597.13;2086717;28;19985;-48
2023/05/28 04:14:34;;;;;;;;;;;;;;;21.67;60.90;98602.53;2084761;28;19973;-48
2023/05/28 04:15:35;;;;;;;;;;;;;;;21.67;60.61;98599.84;2081713;28;20016;-51
2023/05/28 04:16:36;;;;;;;;;;;;;;;21.66;60.82;98600.91;2087730;28;20144;-47
2023/05/28 04:17:37;;;;;;;;;;;;;;;21.67;60.65;98605.25;2086085;28;20791;-49
2023/05/28 04:18:38;;;;;;;;;;;;;;;21.66;60.76;98599.03;2087199;28;20441;-49
2023/05/28 04:19:40;;;;;;;;;;;;;;;21.66;60.95;98598.19;2083467;28;19959;-48
2023/05/28 04:20:41;;;;;;;;;;;;;;;21.65;60.83;98600.09;2082267;28;19936;-52
2023/05/28 04:21:43;;;;;;;;;;;;;;;21.65;60.88;98597.38;2083845;28;19959;-50
2023/05/28 04:22:43;;;;;;;;;;;;;;;21.65;60.77;98605.47;2084221;28;20003;-48
2023/05/28 04:23:45;;;;;;;;;;;;;;;21.64;60.73;98598.41;2083691;28;20289;-48
2023/05/28 04:24:46;;;;;;;;;;;;;;;21.65;60.97;98602.78;2085153;28;20015;-52
2023/05/28 04:25:50;;;;;;;;;;;;;;;21.66;60.77;98601.72;2079940;28;20018;-48
2023/05/28 04:26:51;;;;;;;;;;;;;;;21.65;60.89;98600.09;2083236;28;19975;-50
2023/05/28 04:27:54;;;;;;;;;;;;;;;21.63;60.77;98597.59;2085160;28;20405;-52
2023/05/28 04:28:54;;;;;;;;;;;;;;;21.63;60.77;98605.69;2086198;28;20735;-51
2023/05/28 04:29:56;;;;;;;;;;;;;;;21.63;60.86;98603.00;2087226;28;20280;-47
2023/05/28 04:31:01;;;;;;;;;;;;;;;21.63;60.92;98599.47;2091212;28;19928;-49
2023/05/28 04:32:04;;;;;;;;;;;;;;;21.63;60.65;98596.78;2087067;28;19931;-47
2023/05/28 04:33:04;;;;;;;;;;;;;;;21.62;60.66;98601.34;2088763;28;19928;-46
2023/05/28 04:34:06;;;;;;;;;;;;;;;21.63;60.89;98599.47;2087444;28;19928;-45
2023/05/28 04:35:08;;;;;;;;;;;;;;;21.64;60.96;98599.22;2081154;28;20968;-50
2023/05/28 04:36:13;;;;;;;;;;;;;;;21.62;60.86;98595.94;2080915;28;19955;-49
2023/05/28 04:37:13;;;;;;;;;;;;;;;21.62;60.91;98600.53;2083879;28;19974;-47
2023/05/28 04:38:15;;;;;;;;;;;;;;;21.63;61.00;98604.88;2082854;28;19985;-53
2023/05/28 04:39:15;;;;;;;;;;;;;;;21.63;60.85;98600.28;2081278;28;19974;-52
2023/05/28 04:40:17;;;;;;;;;;;;;;;21.63;60.93;98602.16;2082620;28;20392;-50
2023/05/28 04:41:18;;;;;;;;;;;;;;;21.62;60.97;98595.94;2087346;28;19928;-47
2023/05/28 04:42:20;;;;;;;;;;;;;;;21.63;60.76;98596.78;2084544;28;20754;-48
2023/05/28 04:43:22;;;;;;;;;;;;;;;21.61;60.56;98599.69;2087368;28;19928;-52
2023/05/28 04:44:25;;;;;;;;;;;;;;;21.61;60.92;98599.69;2087554;28;20389;-51
2023/05/28 04:45:26;;;;;;;;;;;;;;;21.61;60.74;98598.88;2087922;28;19956;-51
2023/05/28 04:46:29;;;;;;;;;;;;;;;21.61;60.65;98596.97;2083728;28;20333;-50
2023/05/28 04:47:29;;;;;;;;;;;;;;;21.62;60.95;98598.66;2087600;28;19975;-48
2023/05/28 04:48:32;;;;;;;;;;;;;;;21.63;60.79;98607.56;2085705;28;20017;-51
2023/05/28 04:49:33;;;;;;;;;;;;;;;21.61;60.97;98599.69;2084469;28;19920;-50
2023/05/28 04:50:34;;;;;;;;;;;;;;;21.61;61.13;98596.97;2083976;28;20390;-53
2023/05/28 04:51:36;;;;;;;;;;;;;;;21.62;60.77;98604.06;2084620;28;20060;-52
2023/05/28 04:52:38;;;;;;;;;;;;;;;21.61;60.91;98596.16;2082358;28;19921;-49
2023/05/28 04:53:38;;;;;;;;;;;;;;;21.61;60.71;98599.69;2084673;28;20672;-50
2023/05/28 04:54:40;;;;;;;;;;;;;;;21.61;60.71;98593.47;2081954;28;19928;-48
2023/05/28 04:55:41;;;;;;;;;;;;;;;21.61;60.75;98604.25;2084252;28;20040;-52
2023/05/28 04:56:43;;;;;;;;;;;;;;;21.63;60.82;98607.56;2087593;28;19946;-50
2023/05/28 04:57:43;;;;;;;;;;;;;;;21.60;60.87;98595.34;2081316;28;20609;-50
2023/05/28 04:58:46;;;;;;;;;;;;;;;21.62;60.73;98595.13;2080393;28;19928;-48
2023/05/28 04:59:48;;;;;;;;;;;;;;;21.63;60.68;98588.69;2086469;28;19921;-49
2023/05/28 05:00:51;;;;;;;;;;;;;;;21.61;60.95;98591.59;2084215;28;19924;-51
2023/05/28 05:01:51;;;;;;;;;;;;;;;21.59;60.97;98593.72;2083652;28;20386;-51
2023/05/28 05:02:52;;;;;;;;;;;;;;;21.60;60.81;98592.66;2084202;28;20043;-49
2023/05/28 05:03:53;;;;;;;;;;;;;;;21.59;60.85;98592.84;2083355;28;19924;-50
2023/05/28 05:04:54;;;;;;;;;;;;;;;21.60;60.65;98586.44;2086100;28;19978;-47
2023/05/28 05:05:55;;;;;;;;;;;;;;;21.60;60.85;98598.03;2082548;28;20746;-51
2023/05/28 05:06:56;;;;;;;;;;;;;;;21.58;60.92;98591.22;2086934;28;19927;-51
2023/05/28 05:07:57;;;;;;;;;;;;;;;21.58;61.00;98594.72;2086208;28;19993;-51
2023/05/28 05:08:58;;;;;;;;;;;;;;;21.58;61.00;98593.91;2086413;28;19928;-52
2023/05/28 05:09:59;;;;;;;;;;;;;;;21.57;61.01;98595.78;2085749;28;19997;-51
2023/05/28 05:11:01;;;;;;;;;;;;;;;21.55;60.55;98594.38;2078152;28;19928;-49
2023/05/28 05:12:01;;;;;;;;;;;;;;;21.57;60.73;98589.56;2083073;28;19974;-51
2023/05/28 05:13:03;;;;;;;;;;;;;;;21.58;60.84;98596.63;2084033;28;20005;-47
2023/05/28 05:14:05;;;;;;;;;;;;;;;21.56;60.86;98588.75;2086286;28;20585;-50
2023/05/28 05:15:07;;;;;;;;;;;;;;;21.57;60.95;98587.69;2083992;28;19963;-49
2023/05/28 05:16:07;;;;;;;;;;;;;;;21.58;60.75;98594.72;2084056;28;19990;-48
2023/05/28 05:17:10;;;;;;;;;;;;;;;21.58;60.93;98583.13;2087022;28;19924;-51
2023/05/28 05:18:11;;;;;;;;;;;;;;;21.57;60.94;98582.31;2086854;28;20416;-48
2023/05/28 05:19:12;;;;;;;;;;;;;;;21.57;60.69;98584.19;2084064;28;19927;-47
2023/05/28 05:20:13;;;;;;;;;;;;;;;21.56;60.89;98586.06;2083123;28;20389;-48